createdAt,value
2023-05-03T00:01:01.488Z,10.65
2023-05-03T00:03:52.586Z,10.77
2023-05-03T00:06:43.981Z,10.20
2023-05-03T00:09:33.395Z,11.30
2023-05-03T00:12:20.861Z,10.82
2023-05-03T00:15:09.780Z,11.25
2023-05-03T00:17:57.842Z,10.90
2023-05-03T00:20:45.532Z,11.02
2023-05-03T00:23:32.984Z,10.07
2023-05-03T00:26:21.512Z,9.70
2023-05-03T00:29:08.971Z,11.43
2023-05-03T00:31:56.495Z,11.88
2023-05-03T00:34:44.334Z,10.15
2023-05-03T00:37:32.610Z,10.80
2023-05-03T00:40:20.307Z,10.93
2023-05-03T00:43:07.867Z,10.52
2023-05-03T00:46:04.631Z,11.00
2023-05-03T00:49:00.473Z,11.05
2023-05-03T00:51:48.796Z,9.88
2023-05-03T00:54:37.585Z,10.27
2023-05-03T00:57:27.468Z,11.32
2023-05-03T01:00:15.625Z,9.95
2023-05-03T01:03:03.179Z,10.90
2023-05-03T01:06:20.781Z,10.90
2023-05-03T01:09:17.461Z,11.13
2023-05-03T01:12:17.379Z,10.57
2023-05-03T01:15:35.040Z,11.05
2023-05-03T01:18:31.153Z,9.35
2023-05-03T01:21:19.142Z,9.80
2023-05-03T01:24:13.702Z,10.32
2023-05-03T01:27:01.147Z,10.82
2023-05-03T01:29:48.637Z,10.82
2023-05-03T01:33:13.109Z,9.60
2023-05-03T01:36:18.819Z,10.82
2023-05-03T01:39:14.613Z,10.40
2023-05-03T01:42:03.914Z,11.27
2023-05-03T01:44:54.802Z,10.45
2023-05-03T01:47:42.518Z,11.02
2023-05-03T01:50:30.111Z,10.02
2023-05-03T01:53:17.691Z,10.32
2023-05-03T01:56:06.155Z,10.90
2023-05-03T01:58:53.767Z,11.35
2023-05-03T02:01:41.609Z,11.30
2023-05-03T02:04:30.459Z,11.82
2023-05-03T02:07:18.119Z,11.13
2023-05-03T02:10:06.708Z,11.48
2023-05-03T02:12:54.271Z,10.93
2023-05-03T02:15:41.800Z,10.77
2023-05-03T02:18:31.523Z,11.10
2023-05-03T02:21:19.075Z,10.15
2023-05-03T02:24:06.851Z,9.88
2023-05-03T02:26:54.431Z,10.10
2023-05-03T02:29:42.006Z,11.38
2023-05-03T02:32:29.542Z,11.10
2023-05-03T02:35:17.118Z,10.65
2023-05-03T02:38:04.748Z,11.65
2023-05-03T02:40:52.317Z,10.75
2023-05-03T02:43:39.714Z,10.48
2023-05-03T02:46:27.331Z,11.25
2023-05-03T02:49:14.869Z,10.75
2023-05-03T02:52:02.340Z,10.98
2023-05-03T02:54:50.571Z,12.57
2023-05-03T02:57:39.050Z,11.30
2023-05-03T03:00:28.059Z,10.48
2023-05-03T03:03:15.583Z,11.15
2023-05-03T03:06:03.355Z,10.88
2023-05-03T03:08:50.870Z,10.90
2023-05-03T03:11:38.485Z,11.65
2023-05-03T03:14:25.941Z,11.60
2023-05-03T03:17:13.641Z,11.52
2023-05-03T03:20:06.243Z,11.73
2023-05-03T03:22:53.840Z,11.38
2023-05-03T03:25:42.439Z,12.65
2023-05-03T03:28:29.900Z,11.18
2023-05-03T03:31:18.461Z,11.00
2023-05-03T03:34:06.095Z,12.20
2023-05-03T03:36:53.673Z,12.18
2023-05-03T03:39:41.162Z,13.18
2023-05-03T03:42:28.686Z,13.32
2023-05-03T03:45:16.482Z,13.25
2023-05-03T03:48:04.162Z,12.50
2023-05-03T03:50:52.673Z,13.38
2023-05-03T03:53:40.186Z,12.43
2023-05-03T03:56:28.018Z,12.40
2023-05-03T03:59:15.627Z,11.85
2023-05-03T04:02:06.330Z,13.00
2023-05-03T04:04:53.853Z,12.38
2023-05-03T04:07:41.422Z,12.38
2023-05-03T04:10:28.980Z,11.88
2023-05-03T04:13:16.495Z,12.30
2023-05-03T04:16:05.086Z,11.77
2023-05-03T04:18:52.775Z,11.98
2023-05-03T04:21:40.287Z,12.55
2023-05-03T04:24:30.701Z,13.00
2023-05-03T04:27:18.866Z,13.10
2023-05-03T04:30:07.782Z,12.63
2023-05-03T04:32:55.635Z,12.18
2023-05-03T04:35:44.302Z,11.43
2023-05-03T04:38:32.517Z,12.75
2023-05-03T04:41:20.746Z,12.05
2023-05-03T04:44:08.361Z,11.88
2023-05-03T04:46:56.635Z,12.40
2023-05-03T04:49:44.320Z,11.27
2023-05-03T04:52:31.906Z,12.10
2023-05-03T04:55:19.571Z,11.45
2023-05-03T04:58:09.469Z,10.75
2023-05-03T05:00:57.588Z,11.27
2023-05-03T05:03:45.496Z,10.27
2023-05-03T05:06:35.419Z,10.65
2023-05-03T05:09:25.958Z,11.45
2023-05-03T05:12:13.578Z,11.60
2023-05-03T05:15:01.089Z,9.30
2023-05-03T05:17:49.124Z,10.27
2023-05-03T05:20:36.793Z,9.50
2023-05-03T05:23:24.257Z,8.85
2023-05-03T05:26:11.752Z,8.52
2023-05-03T05:28:59.260Z,9.60
2023-05-03T05:31:49.157Z,8.63
2023-05-03T05:34:45.130Z,9.50
2023-05-03T05:37:33.586Z,8.63
2023-05-03T05:40:21.379Z,7.80
2023-05-03T05:43:09.653Z,8.00
2023-05-03T05:46:02.935Z,7.93
2023-05-03T05:48:52.531Z,7.97
2023-05-03T05:51:40.065Z,7.97
2023-05-03T05:54:28.691Z,7.72
2023-05-03T05:57:18.473Z,7.88
2023-05-03T06:00:14.663Z,8.23
2023-05-03T06:03:02.430Z,7.63
2023-05-03T06:05:50.018Z,7.18
2023-05-03T06:08:37.664Z,7.25
2023-05-03T06:11:46.731Z,7.15
2023-05-03T06:14:34.388Z,6.60
2023-05-03T06:17:23.637Z,6.57
2023-05-03T06:20:14.202Z,6.97
2023-05-03T06:23:01.999Z,6.85
2023-05-03T06:25:52.061Z,7.47
2023-05-03T06:28:39.864Z,6.97
2023-05-03T06:31:27.765Z,7.25
2023-05-03T06:34:22.063Z,6.60
2023-05-03T06:39:57.269Z,7.00
2023-05-03T06:42:44.953Z,6.32
2023-05-03T06:45:32.559Z,6.65
2023-05-03T06:48:21.567Z,6.60
2023-05-03T06:51:12.815Z,5.97
2023-05-03T06:54:06.846Z,6.80
2023-05-03T06:56:54.980Z,7.10
2023-05-03T06:59:42.786Z,6.78
2023-05-03T07:02:30.879Z,6.15
2023-05-03T07:05:19.335Z,6.28
2023-05-03T07:08:07.645Z,6.72
2023-05-03T07:10:55.581Z,7.15
2023-05-03T07:13:43.434Z,7.47
2023-05-03T07:16:31.206Z,6.53
2023-05-03T07:19:19.175Z,6.45
2023-05-03T07:22:14.391Z,6.90
2023-05-03T07:25:02.239Z,6.45
2023-05-03T07:27:50.690Z,6.65
2023-05-03T07:30:38.487Z,7.35
2023-05-03T07:33:28.813Z,6.65
2023-05-03T07:36:16.681Z,6.30
2023-05-03T07:39:06.088Z,6.50
2023-05-03T07:41:53.582Z,6.03
2023-05-03T07:44:42.314Z,5.75
2023-05-03T07:47:30.144Z,6.25
2023-05-03T07:50:18.020Z,6.35
2023-05-03T07:53:05.871Z,5.50
2023-05-03T07:55:58.953Z,5.68
2023-05-03T07:58:50.970Z,5.93
2023-05-03T08:01:45.089Z,6.28
2023-05-03T08:04:34.635Z,5.90
2023-05-03T08:07:23.844Z,6.25
2023-05-03T08:10:11.850Z,6.50
2023-05-03T08:13:05.932Z,6.45
2023-05-03T08:18:44.481Z,6.22
2023-05-03T08:21:48.465Z,7.15
2023-05-03T08:24:36.179Z,5.90
2023-05-03T08:27:28.886Z,6.40
2023-05-03T08:30:26.897Z,5.85
2023-05-03T08:33:15.972Z,6.25
2023-05-03T08:36:10.114Z,5.80
2023-05-03T08:41:51.271Z,6.30
2023-05-03T08:44:49.142Z,6.22
2023-05-03T08:47:39.659Z,6.05
2023-05-03T08:50:28.549Z,5.90
2023-05-03T08:53:17.645Z,6.32
2023-05-03T08:56:12.598Z,6.22
2023-05-03T08:59:08.164Z,5.85
2023-05-03T09:01:58.266Z,6.53
2023-05-03T09:04:46.365Z,6.65
2023-05-03T09:07:36.745Z,6.13
2023-05-03T09:10:26.101Z,6.70
2023-05-03T09:13:16.730Z,5.90
2023-05-03T09:16:05.555Z,5.80
2023-05-03T09:19:00.277Z,7.22
2023-05-03T09:21:48.437Z,6.95
2023-05-03T09:24:37.928Z,6.78
2023-05-03T09:27:27.822Z,6.15
2023-05-03T09:30:19.589Z,6.30
2023-05-03T09:33:11.518Z,6.25
2023-05-03T09:36:05.368Z,6.10
2023-05-03T09:38:57.902Z,6.20
2023-05-03T09:41:48.704Z,6.70
2023-05-03T09:44:52.182Z,5.88
2023-05-03T09:47:54.210Z,6.40
2023-05-03T09:50:51.835Z,6.45
2023-05-03T09:53:42.683Z,7.28
2023-05-03T09:56:31.244Z,7.97
2023-05-03T09:59:19.145Z,6.78
2023-05-03T10:02:08.538Z,5.15
2023-05-03T10:04:57.500Z,6.13
2023-05-03T10:07:51.091Z,5.45
2023-05-03T10:10:45.743Z,6.32
2023-05-03T10:13:36.590Z,6.45
2023-05-03T10:16:31.910Z,5.20
2023-05-03T10:19:27.793Z,5.95
2023-05-03T10:22:17.799Z,5.65
2023-05-03T10:25:09.000Z,6.07
2023-05-03T10:28:10.651Z,6.47
2023-05-03T10:31:00.988Z,6.18
2023-05-03T10:33:52.768Z,6.00
2023-05-03T10:36:50.234Z,12.93
2023-05-03T10:39:46.745Z,6.00
2023-05-03T10:42:40.382Z,6.10
2023-05-03T10:45:31.832Z,5.18
2023-05-03T10:48:21.007Z,6.80
2023-05-03T10:51:37.216Z,5.10
2023-05-03T10:54:27.764Z,6.13
2023-05-03T10:57:17.630Z,5.63
2023-05-03T11:00:13.008Z,4.80
2023-05-03T11:03:19.466Z,5.10
2023-05-03T11:06:10.093Z,5.10
2023-05-03T11:09:00.929Z,5.35
2023-05-03T11:11:54.471Z,4.40
2023-05-03T11:14:43.595Z,4.47
2023-05-03T11:17:34.142Z,4.50
2023-05-03T11:20:24.932Z,4.75
2023-05-03T11:23:15.618Z,4.90
2023-05-03T11:26:08.049Z,4.97
2023-05-03T11:28:58.731Z,4.97
2023-05-03T11:31:49.053Z,5.03
2023-05-03T11:34:40.645Z,4.63
2023-05-03T11:37:36.835Z,4.53
2023-05-03T11:40:28.675Z,4.97
2023-05-03T11:43:18.777Z,5.13
2023-05-03T11:46:10.312Z,4.55
2023-05-03T11:49:01.013Z,4.88
2023-05-03T11:51:55.302Z,4.50
2023-05-03T11:54:53.907Z,4.78
2023-05-03T11:57:44.918Z,4.28
2023-05-03T12:00:36.768Z,4.25
2023-05-03T12:03:33.670Z,4.50
2023-05-03T12:06:26.275Z,4.10
2023-05-03T12:09:19.007Z,4.88
2023-05-03T12:12:11.214Z,4.15
2023-05-03T12:15:08.022Z,4.38
2023-05-03T12:18:04.828Z,4.13
2023-05-03T12:24:01.242Z,4.65
2023-05-03T12:26:55.025Z,4.45
2023-05-03T12:29:51.666Z,4.20
2023-05-03T12:32:44.210Z,4.28
2023-05-03T12:35:41.048Z,3.75
2023-05-03T12:38:37.499Z,3.80
2023-05-03T12:44:29.175Z,3.30
2023-05-03T12:47:28.404Z,4.53
2023-05-03T12:50:24.999Z,4.05
2023-05-03T12:53:19.285Z,3.47
2023-05-03T12:56:13.376Z,3.78
2023-05-03T12:59:34.195Z,3.90
2023-05-03T13:08:17.909Z,3.60
2023-05-03T13:11:10.812Z,4.07
2023-05-03T13:14:02.560Z,3.75
2023-05-03T13:17:03.072Z,3.40
2023-05-03T13:19:53.986Z,3.60
2023-05-03T13:22:52.889Z,3.35
2023-05-03T13:25:44.298Z,4.00
2023-05-03T13:28:32.933Z,3.90
2023-05-03T13:31:34.532Z,3.47
2023-05-03T13:34:24.752Z,2.90
2023-05-03T13:37:18.389Z,3.28
2023-05-03T13:40:10.121Z,3.22
2023-05-03T13:43:01.183Z,3.47
2023-05-03T13:45:53.955Z,2.72
2023-05-03T13:48:44.323Z,3.38
2023-05-03T13:51:35.418Z,3.20
2023-05-03T13:54:25.711Z,3.40
2023-05-03T13:57:18.925Z,2.92
2023-05-03T14:00:14.144Z,3.30
2023-05-03T14:03:07.637Z,3.42
2023-05-03T14:08:56.839Z,3.17
2023-05-03T14:11:50.838Z,2.97
2023-05-03T14:14:44.579Z,3.47
2023-05-03T14:20:25.175Z,3.25
2023-05-03T14:23:15.156Z,2.97
2023-05-03T14:26:07.377Z,2.88
2023-05-03T14:28:59.593Z,3.05
2023-05-03T14:31:52.244Z,3.15
2023-05-03T14:34:44.530Z,2.97
2023-05-03T14:37:38.231Z,3.90
2023-05-03T14:40:30.151Z,3.17
2023-05-03T14:43:27.489Z,3.08
2023-05-03T14:46:26.962Z,3.47
2023-05-03T14:49:43.173Z,2.75
2023-05-03T14:52:53.027Z,2.53
2023-05-03T14:55:46.947Z,3.25
2023-05-03T15:01:48.097Z,3.10
2023-05-03T15:04:41.817Z,3.00
2023-05-03T15:07:37.051Z,2.88
2023-05-03T15:10:55.010Z,3.17
2023-05-03T15:13:49.219Z,2.90
2023-05-03T15:20:38.012Z,2.45
2023-05-03T15:23:36.219Z,3.03
2023-05-03T15:30:24.239Z,2.10
2023-05-03T15:36:50.907Z,2.47
2023-05-03T15:39:49.173Z,2.77
2023-05-03T15:45:58.973Z,2.47
2023-05-03T15:48:58.260Z,2.58
2023-05-03T15:51:52.439Z,2.55
2023-05-03T15:54:47.447Z,2.55
2023-05-03T15:58:08.992Z,2.90
2023-05-03T16:01:14.797Z,2.45
2023-05-03T16:04:16.485Z,2.40
2023-05-03T16:07:12.872Z,2.70
2023-05-03T16:10:03.590Z,5.45
2023-05-03T16:13:04.440Z,2.15
2023-05-03T16:16:13.417Z,2.10
2023-05-03T16:19:21.293Z,1.95
2023-05-03T16:22:18.365Z,2.05
2023-05-03T16:25:14.805Z,1.83
2023-05-03T16:28:06.629Z,2.08
2023-05-03T16:31:06.150Z,2.10
2023-05-03T16:34:01.179Z,2.28
2023-05-03T16:37:00.611Z,2.22
2023-05-03T16:39:53.257Z,1.90
2023-05-03T16:42:48.559Z,1.88
2023-05-03T16:45:46.410Z,1.95
2023-05-03T16:48:53.952Z,2.25
2023-05-03T16:51:43.344Z,1.98
2023-05-03T16:54:41.079Z,1.90
2023-05-03T16:57:34.950Z,1.67
2023-05-03T17:03:14.460Z,1.77
2023-05-03T17:06:05.292Z,1.98
2023-05-03T17:08:54.966Z,2.05
2023-05-03T17:11:42.774Z,1.80
2023-05-03T17:14:31.104Z,1.90
2023-05-03T17:17:29.541Z,1.70
2023-05-03T17:20:21.543Z,1.90
2023-05-03T17:23:12.726Z,1.83
2023-05-03T17:26:04.678Z,2.03
2023-05-03T17:29:09.279Z,2.00
2023-05-03T17:33:04.957Z,2.25
2023-05-03T17:35:26.858Z,1.83
2023-05-03T17:38:24.935Z,2.50
2023-05-03T17:42:07.994Z,2.00
2023-05-03T17:44:55.814Z,2.25
2023-05-03T17:47:46.712Z,2.70
2023-05-03T17:50:35.318Z,2.25
2023-05-03T17:53:33.423Z,1.70
2023-05-03T17:56:21.513Z,1.98
2023-05-03T17:59:10.032Z,2.45
2023-05-03T18:01:57.947Z,1.75
2023-05-03T18:04:45.861Z,2.55
2023-05-03T18:07:36.977Z,2.50
2023-05-03T18:10:27.831Z,2.10
2023-05-03T18:13:23.556Z,2.45
2023-05-03T18:16:11.808Z,2.40
2023-05-03T18:19:08.151Z,3.40
2023-05-03T18:21:58.338Z,2.60
2023-05-03T18:24:46.134Z,3.20
2023-05-03T18:27:38.143Z,3.10
2023-05-03T18:30:28.369Z,2.30
2023-05-03T18:33:19.166Z,3.60
2023-05-03T18:36:14.039Z,2.53
2023-05-03T18:39:01.627Z,2.28
2023-05-03T18:41:56.699Z,2.50
2023-05-03T18:44:51.832Z,2.53
2023-05-03T18:47:39.745Z,2.45
2023-05-03T18:50:27.600Z,2.65
2023-05-03T18:53:20.437Z,2.88
2023-05-03T18:56:12.349Z,3.10
2023-05-03T18:59:03.240Z,3.00
2023-05-03T19:01:50.989Z,2.72
2023-05-03T19:04:38.546Z,2.58
2023-05-03T19:07:26.194Z,2.67
2023-05-03T19:10:25.255Z,2.92
2023-05-03T19:13:14.782Z,3.10
2023-05-03T19:16:03.722Z,3.60
2023-05-03T19:18:51.827Z,4.82
2023-05-03T19:21:42.620Z,4.70
2023-05-03T19:24:30.251Z,4.30
2023-05-03T19:27:21.251Z,4.28
2023-05-03T19:30:10.385Z,3.53
2023-05-03T19:32:59.054Z,3.55
2023-05-03T19:35:46.806Z,3.10
2023-05-03T19:38:38.457Z,3.08
2023-05-03T19:41:26.243Z,2.90
2023-05-03T19:44:14.063Z,3.08
2023-05-03T19:47:01.565Z,2.45
2023-05-03T19:49:49.289Z,2.30
2023-05-03T19:52:40.483Z,2.38
2023-05-03T19:55:28.121Z,2.47
2023-05-03T19:58:15.790Z,2.03
2023-05-03T20:01:07.156Z,2.50
2023-05-03T20:03:55.318Z,2.85
2023-05-03T20:06:43.069Z,2.80
2023-05-03T20:09:30.900Z,2.25
2023-05-03T20:12:18.522Z,3.03
2023-05-03T20:15:07.252Z,3.10
2023-05-03T20:17:54.994Z,3.13
2023-05-03T20:20:42.659Z,3.10
2023-05-03T20:23:30.555Z,3.33
2023-05-03T20:26:19.046Z,3.53
2023-05-03T20:29:06.545Z,3.55
2023-05-03T20:31:54.081Z,3.50
2023-05-03T20:34:42.665Z,3.30
2023-05-03T20:37:30.315Z,3.10
2023-05-03T20:40:17.837Z,3.58
2023-05-03T20:43:05.367Z,2.90
2023-05-03T20:45:53.690Z,3.45
2023-05-03T20:48:41.172Z,2.92
2023-05-03T20:51:29.340Z,2.90
2023-05-03T20:54:17.031Z,3.30
2023-05-03T20:57:05.016Z,3.20
2023-05-03T20:59:52.458Z,3.05
2023-05-03T21:02:40.411Z,3.50
2023-05-03T21:05:30.918Z,4.10
2023-05-03T21:08:18.611Z,4.35
2023-05-03T21:11:06.960Z,3.83
2023-05-03T21:13:54.603Z,3.60
2023-05-03T21:16:42.439Z,3.72
2023-05-03T21:19:30.060Z,3.17
2023-05-03T21:22:18.076Z,3.25
2023-05-03T21:25:09.165Z,3.35
2023-05-03T21:27:57.201Z,3.42
2023-05-03T21:30:48.376Z,2.95
2023-05-03T21:33:35.854Z,3.50
2023-05-03T21:36:23.372Z,3.42
2023-05-03T21:39:11.028Z,3.40
2023-05-03T21:41:58.800Z,3.85
2023-05-03T21:44:49.457Z,3.80
2023-05-03T21:47:37.095Z,3.03
2023-05-03T21:50:25.073Z,3.60
2023-05-03T21:53:12.970Z,3.47
2023-05-03T21:56:01.347Z,3.80
2023-05-03T21:58:49.326Z,3.70
2023-05-03T22:01:37.019Z,3.72
2023-05-03T22:04:24.788Z,3.70
2023-05-03T22:07:12.404Z,3.90
2023-05-03T22:09:59.973Z,3.50
2023-05-03T22:12:48.388Z,3.53
2023-05-03T22:15:36.130Z,3.53
2023-05-03T22:18:25.945Z,3.72
2023-05-03T22:21:13.660Z,3.22
2023-05-03T22:24:01.942Z,3.70
2023-05-03T22:26:49.968Z,3.78
2023-05-03T22:29:38.053Z,4.15
2023-05-03T22:32:25.528Z,4.10
2023-05-03T22:35:14.761Z,4.20
2023-05-03T22:38:02.852Z,4.25
2023-05-03T22:40:50.488Z,3.95
2023-05-03T22:43:38.188Z,4.32
2023-05-03T22:46:26.061Z,4.25
2023-05-03T22:49:13.811Z,4.03
2023-05-03T22:52:04.080Z,3.80
2023-05-03T22:54:56.267Z,4.13
2023-05-03T22:57:43.947Z,4.13
2023-05-03T23:00:31.529Z,4.57
2023-05-03T23:03:19.571Z,3.70
2023-05-03T23:06:07.537Z,4.13
2023-05-03T23:08:55.130Z,3.90
2023-05-03T23:11:43.364Z,4.50
2023-05-03T23:14:31.168Z,4.03
2023-05-03T23:17:18.649Z,4.55
2023-05-03T23:20:06.904Z,4.00
2023-05-03T23:22:54.991Z,4.30
2023-05-03T23:25:42.848Z,4.55
2023-05-03T23:28:30.721Z,4.50
2023-05-03T23:31:18.548Z,4.13
2023-05-03T23:34:07.056Z,4.15
2023-05-03T23:36:54.469Z,4.32
2023-05-03T23:39:45.455Z,4.90
2023-05-03T23:42:33.116Z,5.43
2023-05-03T23:45:20.844Z,4.80
2023-05-03T23:48:08.535Z,4.60
2023-05-03T23:50:56.096Z,4.45
2023-05-03T23:53:43.631Z,4.50
2023-05-03T23:56:31.062Z,4.90
2023-05-03T23:59:18.536Z,4.15
